createdAt,value
2023-06-17T00:00:36.086Z,8.00
2023-06-17T00:05:42.226Z,9.68
2023-06-17T00:10:48.295Z,9.95
2023-06-17T00:15:56.071Z,8.60
2023-06-17T00:21:01.824Z,8.30
2023-06-17T00:26:07.128Z,7.95
2023-06-17T00:36:18.069Z,4.40
2023-06-17T00:46:44.012Z,9.95
2023-06-17T00:52:04.717Z,10.27
2023-06-17T00:57:18.414Z,8.85
2023-06-17T01:02:27.998Z,10.20
2023-06-17T01:07:53.081Z,7.45
2023-06-17T01:13:00.414Z,10.07
2023-06-17T01:18:09.831Z,11.10
2023-06-17T01:23:20.903Z,9.18
2023-06-17T01:28:27.082Z,10.43
2023-06-17T01:33:33.517Z,9.30
2023-06-17T01:38:43.936Z,8.43
2023-06-17T01:43:52.324Z,8.23
2023-06-17T01:48:58.935Z,10.15
2023-06-17T01:54:04.651Z,10.50
2023-06-17T01:59:10.172Z,10.15
2023-06-17T02:04:16.169Z,9.75
2023-06-17T02:09:22.295Z,4.80
2023-06-17T02:14:28.498Z,8.52
2023-06-17T02:19:38.092Z,11.00
2023-06-17T02:24:43.735Z,10.82
2023-06-17T02:29:49.527Z,11.75
2023-06-17T02:34:55.756Z,11.55
2023-06-17T02:40:01.533Z,8.30
2023-06-17T02:45:09.893Z,11.85
2023-06-17T02:50:15.832Z,12.30
2023-06-17T02:55:21.259Z,12.38
2023-06-17T03:05:32.830Z,12.95
2023-06-17T03:10:38.594Z,9.50
2023-06-17T03:15:50.505Z,12.35
2023-06-17T03:20:57.740Z,12.25
2023-06-17T03:26:05.186Z,12.75
2023-06-17T03:31:10.997Z,12.68
2023-06-17T03:36:20.115Z,11.80
2023-06-17T03:41:29.924Z,13.25
2023-06-17T03:46:35.762Z,10.70
2023-06-17T03:51:42.604Z,11.90
2023-06-17T03:56:48.648Z,13.13
2023-06-17T04:01:54.317Z,13.60
2023-06-17T04:07:00.276Z,12.73
2023-06-17T04:12:06.573Z,12.68
2023-06-17T04:17:14.200Z,7.13
2023-06-17T04:22:19.765Z,12.15
2023-06-17T04:27:25.826Z,7.35
2023-06-17T04:32:31.634Z,12.30
2023-06-17T04:37:39.165Z,8.98
2023-06-17T04:42:47.353Z,10.93
2023-06-17T04:47:53.056Z,11.95
2023-06-17T04:53:06.124Z,12.57
2023-06-17T04:58:15.172Z,5.05
2023-06-17T05:03:26.685Z,10.88
2023-06-17T05:08:32.861Z,11.10
2023-06-17T05:13:40.912Z,7.63
2023-06-17T05:18:47.086Z,9.27
2023-06-17T05:28:59.739Z,10.60
2023-06-17T05:34:05.744Z,10.80
2023-06-17T05:39:13.032Z,8.80
2023-06-17T05:44:19.353Z,10.20
2023-06-17T05:49:28.453Z,10.10
2023-06-17T05:54:34.124Z,9.25
2023-06-17T05:59:40.397Z,9.57
2023-06-17T06:04:46.278Z,9.07
2023-06-17T06:09:52.312Z,9.30
2023-06-17T06:14:59.959Z,9.10
2023-06-17T06:20:09.875Z,9.30
2023-06-17T06:25:15.393Z,8.93
2023-06-17T06:30:21.308Z,8.63
2023-06-17T06:35:31.274Z,8.65
2023-06-17T06:40:38.066Z,6.47
2023-06-17T06:45:43.969Z,7.38
2023-06-17T06:50:50.422Z,7.43
2023-06-17T06:55:59.606Z,8.43
2023-06-17T07:01:07.468Z,8.13
2023-06-17T07:06:13.590Z,8.63
2023-06-17T07:11:20.804Z,7.38
2023-06-17T07:16:26.919Z,6.10
2023-06-17T07:21:33.197Z,8.63
2023-06-17T07:26:39.061Z,8.60
2023-06-17T07:31:45.283Z,9.20
2023-06-17T07:36:55.039Z,8.18
2023-06-17T07:42:00.582Z,9.00
2023-06-17T07:47:06.821Z,8.85
2023-06-17T07:52:12.553Z,9.23
2023-06-17T07:57:18.388Z,8.82
2023-06-17T08:02:24.231Z,7.57
2023-06-17T08:07:29.775Z,8.65
2023-06-17T08:12:35.491Z,7.25
2023-06-17T08:17:41.144Z,8.05
2023-06-17T08:22:46.953Z,8.77
2023-06-17T08:27:53.230Z,8.70
2023-06-17T08:33:00.220Z,8.55
2023-06-17T08:38:08.482Z,9.00
2023-06-17T08:43:18.162Z,8.75
2023-06-17T08:48:24.448Z,9.68
2023-06-17T09:05:56.384Z,8.68
2023-06-17T09:11:13.251Z,8.55
2023-06-17T09:16:37.722Z,9.90
2023-06-17T09:21:44.140Z,10.27
2023-06-17T09:26:50.523Z,9.25
2023-06-17T09:31:58.421Z,10.07
2023-06-17T09:37:05.806Z,10.38
2023-06-17T09:42:13.146Z,11.25
2023-06-17T09:47:24.684Z,10.75
2023-06-17T09:52:31.421Z,9.13
2023-06-17T09:57:39.033Z,11.77
2023-06-17T10:02:45.378Z,9.35
2023-06-17T10:07:52.743Z,10.95
2023-06-17T10:13:02.203Z,12.10
2023-06-17T10:18:10.916Z,12.63
2023-06-17T10:23:17.416Z,12.45
2023-06-17T10:28:24.016Z,11.50
2023-06-17T10:33:30.244Z,10.15
2023-06-17T10:38:36.812Z,9.95
2023-06-17T10:43:43.916Z,9.85
2023-06-17T10:48:50.402Z,12.02
2023-06-17T10:53:56.157Z,9.93
2023-06-17T10:59:02.357Z,10.80
2023-06-17T11:04:12.117Z,10.73
2023-06-17T11:09:17.992Z,10.85
2023-06-17T11:14:24.388Z,10.15
2023-06-17T11:19:30.267Z,10.38
2023-06-17T11:24:37.532Z,9.63
2023-06-17T11:29:46.570Z,9.95
2023-06-17T11:34:54.468Z,10.52
2023-06-17T11:40:00.522Z,11.95
2023-06-17T11:45:08.276Z,10.73
2023-06-17T11:50:14.243Z,9.88
2023-06-17T11:55:19.998Z,6.90
2023-06-17T12:00:26.268Z,8.20
2023-06-17T12:05:34.443Z,5.95
2023-06-17T12:10:42.864Z,3.95
2023-06-17T12:15:48.792Z,5.78
2023-06-17T12:20:54.947Z,6.30
2023-06-17T12:26:00.575Z,4.72
2023-06-17T12:31:06.172Z,5.05
2023-06-17T12:36:11.845Z,4.65
2023-06-17T12:41:19.330Z,4.97
2023-06-17T12:46:26.680Z,4.22
2023-06-17T12:51:32.064Z,4.93
2023-06-17T12:56:38.085Z,4.93
2023-06-17T13:01:44.126Z,4.90
2023-06-17T13:06:50.266Z,5.38
2023-06-17T13:11:56.166Z,4.90
2023-06-17T13:17:02.471Z,4.85
2023-06-17T13:22:08.782Z,5.40
2023-06-17T13:27:20.930Z,4.95
2023-06-17T13:32:26.748Z,5.10
2023-06-17T13:37:32.455Z,5.28
2023-06-17T13:42:38.197Z,4.95
2023-06-17T13:47:44.019Z,5.30
2023-06-17T13:52:49.756Z,5.60
2023-06-17T13:57:55.370Z,6.13
2023-06-17T14:03:01.138Z,6.70
2023-06-17T14:08:07.801Z,7.57
2023-06-17T14:13:15.756Z,5.93
2023-06-17T14:18:21.127Z,7.40
2023-06-17T14:23:27.078Z,12.50
2023-06-17T14:28:33.164Z,14.85
2023-06-17T14:33:39.327Z,8.45
2023-06-17T14:38:45.160Z,11.05
2023-06-17T14:43:51.389Z,10.05
2023-06-17T14:49:00.598Z,8.68
2023-06-17T14:54:52.596Z,8.20
2023-06-17T14:59:50.840Z,7.60
2023-06-17T15:04:56.814Z,7.30
2023-06-17T15:10:02.448Z,7.10
2023-06-17T15:15:08.999Z,8.30
2023-06-17T15:20:14.740Z,7.25
2023-06-17T15:25:20.525Z,6.63
2023-06-17T15:30:27.232Z,7.03
2023-06-17T15:35:33.503Z,7.53
2023-06-17T15:40:40.025Z,6.65
2023-06-17T15:45:45.577Z,6.00
2023-06-17T15:50:51.439Z,6.15
2023-06-17T15:55:57.885Z,5.20
2023-06-17T16:01:04.019Z,4.40
2023-06-17T16:06:11.461Z,5.85
2023-06-17T16:11:17.141Z,5.90
2023-06-17T16:16:23.242Z,5.13
2023-06-17T16:21:29.263Z,9.65
2023-06-17T16:26:34.851Z,7.10
2023-06-17T16:31:40.934Z,5.53
2023-06-17T16:36:46.643Z,6.72
2023-06-17T16:41:52.974Z,6.15
2023-06-17T16:47:17.230Z,5.85
2023-06-17T16:52:26.226Z,5.32
2023-06-17T16:57:40.701Z,6.97
2023-06-17T17:02:53.305Z,8.80
2023-06-17T17:07:59.343Z,10.00
2023-06-17T17:13:05.106Z,10.32
2023-06-17T17:18:11.162Z,7.72
2023-06-17T17:23:17.969Z,8.18
2023-06-17T17:28:23.786Z,6.60
2023-06-17T17:33:29.684Z,6.95
2023-06-17T17:38:35.560Z,7.28
2023-06-17T17:43:42.221Z,7.00
2023-06-17T17:48:47.902Z,6.85
2023-06-17T17:53:53.681Z,7.75
2023-06-17T17:58:59.718Z,8.05
2023-06-17T18:04:05.991Z,7.50
2023-06-17T18:09:12.015Z,7.15
2023-06-17T18:14:18.775Z,4.05
2023-06-17T18:19:24.942Z,6.18
2023-06-17T18:24:30.989Z,5.82
2023-06-17T18:29:37.959Z,7.55
2023-06-17T18:34:44.824Z,4.57
2023-06-17T18:39:50.942Z,5.10
2023-06-17T18:44:56.653Z,7.28
2023-06-17T18:50:02.733Z,5.53
2023-06-17T18:55:09.152Z,6.38
2023-06-17T19:00:15.045Z,6.10
2023-06-17T19:05:20.684Z,6.90
2023-06-17T19:10:27.800Z,6.22
2023-06-17T19:15:35.583Z,6.65
2023-06-17T19:20:42.768Z,6.40
2023-06-17T19:25:48.455Z,6.45
2023-06-17T19:30:53.817Z,6.18
2023-06-17T19:41:06.405Z,7.47
2023-06-17T19:46:12.265Z,7.60
2023-06-17T19:51:17.657Z,7.43
2023-06-17T20:01:30.397Z,7.03
2023-06-17T20:06:36.202Z,6.40
2023-06-17T20:11:42.044Z,6.32
2023-06-17T20:16:48.097Z,6.60
2023-06-17T20:21:54.001Z,6.80
2023-06-17T20:26:59.921Z,7.45
2023-06-17T20:32:05.513Z,6.25
2023-06-17T20:37:10.965Z,6.75
2023-06-17T20:42:16.576Z,6.88
2023-06-17T20:47:22.790Z,6.18
2023-06-17T20:52:28.927Z,6.18
2023-06-17T20:57:34.554Z,6.40
2023-06-17T21:02:40.031Z,6.03
2023-06-17T21:07:46.474Z,5.72
2023-06-17T21:12:52.808Z,5.10
2023-06-17T21:17:58.764Z,5.00
2023-06-17T21:23:04.650Z,4.55
2023-06-17T21:28:10.238Z,4.03
2023-06-17T21:33:15.814Z,5.07
2023-06-17T21:38:21.721Z,4.85
2023-06-17T21:43:27.477Z,4.75
2023-06-17T21:48:37.309Z,5.22
2023-06-17T21:53:42.906Z,6.18
2023-06-17T21:58:48.750Z,5.07
2023-06-17T22:03:54.562Z,4.93
2023-06-17T22:09:00.275Z,5.75
2023-06-17T22:14:05.839Z,5.15
2023-06-17T22:19:11.639Z,6.32
2023-06-17T22:24:17.502Z,6.25
2023-06-17T22:29:23.296Z,7.00
2023-06-17T22:34:29.155Z,5.63
2023-06-17T22:39:35.304Z,6.97
2023-06-17T22:44:40.937Z,7.32
2023-06-17T22:49:46.528Z,5.68
2023-06-17T22:54:52.692Z,6.43
2023-06-17T22:59:58.390Z,6.03
2023-06-17T23:05:04.263Z,5.70
2023-06-17T23:10:09.897Z,4.65
2023-06-17T23:15:15.793Z,5.20
2023-06-17T23:20:21.823Z,4.93
2023-06-17T23:25:28.774Z,4.72
2023-06-17T23:30:34.485Z,4.72
2023-06-17T23:35:40.576Z,5.90
2023-06-17T23:40:46.438Z,7.30
2023-06-17T23:45:57.446Z,4.93
2023-06-17T23:51:03.293Z,5.28
2023-06-17T23:56:09.343Z,6.90
